Time;durP1;ratioP1;P1;durP2;ratioP2;P2;SDS_P1;SDS_P2;PMS_P1;PMS_P2;Temp;Humidity;BMP_temperature;BMP_pressure;BME280_temperature;BME280_humidity;BME280_pressure;Samples;Min_cycle;Max_cycle;Signal;HPM_P1;HPM_P2
2023/08/20 00:00:54;;;;;;;12.97;11.87;;;20.00;99.90;;;;;;4994749;28;20839;-73
2023/08/20 00:03:22;;;;;;;12.80;11.80;;;20.00;99.90;;;;;;4995386;28;20503;-73
2023/08/20 00:05:51;;;;;;;12.27;11.23;;;19.90;99.90;;;;;;4994668;28;20519;-73
2023/08/20 00:08:19;;;;;;;14.40;13.10;;;19.90;99.90;;;;;;4994166;28;20633;-73
2023/08/20 00:10:47;;;;;;;12.87;11.67;;;19.90;99.90;;;;;;4994791;28;20535;-73
2023/08/20 00:13:15;;;;;;;12.80;11.37;;;19.90;99.90;;;;;;4994986;28;20449;-73
2023/08/20 00:15:44;;;;;;;15.53;13.60;;;19.80;99.90;;;;;;4995899;28;20477;-73
2023/08/20 00:18:14;;;;;;;13.20;12.00;;;19.80;99.90;;;;;;4995019;28;20913;-73
2023/08/20 00:20:45;;;;;;;12.83;11.73;;;19.70;99.90;;;;;;4994666;28;20760;-73
2023/08/20 00:23:14;;;;;;;14.10;12.80;;;19.70;99.90;;;;;;4994866;28;20421;-73
2023/08/20 00:25:44;;;;;;;13.77;12.57;;;19.70;99.90;;;;;;4994048;28;20440;-73
2023/08/20 00:28:13;;;;;;;14.50;13.00;;;19.60;99.90;;;;;;4993826;28;20425;-73
2023/08/20 00:30:42;;;;;;;13.37;12.30;;;19.60;99.90;;;;;;4992803;28;20480;-73
2023/08/20 00:33:13;;;;;;;14.63;13.30;;;19.60;99.90;;;;;;4994132;28;20437;-73
2023/08/20 00:35:42;;;;;;;13.90;12.70;;;19.50;99.90;;;;;;4994482;28;20460;-73
2023/08/20 00:38:10;;;;;;;13.47;12.20;;;19.50;99.90;;;;;;4994149;28;20875;-73
2023/08/20 00:40:39;;;;;;;13.27;12.17;;;19.50;99.90;;;;;;4992780;28;20453;-73
2023/08/20 00:43:07;;;;;;;13.63;12.27;;;19.40;99.90;;;;;;4993810;28;20480;-73
2023/08/20 00:45:35;;;;;;;13.47;12.23;;;19.40;99.90;;;;;;4994011;28;20433;-73
2023/08/20 00:48:05;;;;;;;13.83;12.40;;;19.40;99.90;;;;;;4993853;28;20433;-73
2023/08/20 00:50:35;;;;;;;13.77;12.37;;;19.40;99.90;;;;;;4992610;28;20488;-73
2023/08/20 00:53:03;;;;;;;12.10;11.03;;;19.40;99.90;;;;;;4994115;28;20432;-73
2023/08/20 00:55:31;;;;;;;12.50;11.30;;;19.40;99.90;;;;;;4994071;28;20531;-73
2023/08/20 00:58:00;;;;;;;13.87;12.33;;;19.30;99.90;;;;;;4993688;28;20484;-73
2023/08/20 01:00:29;;;;;;;13.37;12.07;;;19.30;99.90;;;;;;4993739;28;20808;-73
2023/08/20 01:02:57;;;;;;;12.73;11.63;;;19.20;99.90;;;;;;4993839;28;21049;-73
2023/08/20 01:05:25;;;;;;;12.03;11.00;;;19.20;99.90;;;;;;4992465;28;20449;-73
2023/08/20 01:08:14;;;;;;;12.53;11.43;;;19.20;99.90;;;;;;4992494;28;20485;-73
2023/08/20 01:10:51;;;;;;;12.23;11.27;;;19.20;99.90;;;;;;4992339;28;20532;-73
2023/08/20 01:13:19;;;;;;;12.77;11.47;;;19.10;99.90;;;;;;4993963;28;20460;-73
2023/08/20 01:15:47;;;;;;;13.50;12.30;;;19.10;99.90;;;;;;4993815;28;20564;-73
2023/08/20 01:18:17;;;;;;;11.20;10.30;;;19.10;99.90;;;;;;4993971;28;20524;-73
2023/08/20 01:20:52;;;;;;;13.23;11.97;;;19.00;99.90;;;;;;4993830;28;20535;-73
2023/08/20 01:23:46;;;;;;;13.17;12.07;;;19.00;99.90;;;;;;4992379;28;20559;-73
2023/08/20 01:26:31;;;;;;;13.07;11.80;;;19.00;99.90;;;;;;4992283;28;20441;-73
2023/08/20 01:29:01;;;;;;;12.93;11.83;;;19.00;99.90;;;;;;4992235;28;20498;-73
2023/08/20 01:31:30;;;;;;;11.77;10.67;;;18.90;99.90;;;;;;4993438;28;20441;-73
2023/08/20 01:33:58;;;;;;;12.77;11.57;;;18.90;99.90;;;;;;4992102;28;20500;-73
2023/08/20 01:36:28;;;;;;;13.10;11.90;;;18.90;99.90;;;;;;4993288;28;20474;-73
2023/08/20 01:38:56;;;;;;;11.70;10.60;;;18.80;99.90;;;;;;4993410;28;20469;-73
2023/08/20 01:41:24;;;;;;;12.33;11.27;;;18.80;99.90;;;;;;4995013;28;20459;-73
2023/08/20 01:43:52;;;;;;;12.50;11.50;;;18.80;99.90;;;;;;4996991;28;20543;-73
2023/08/20 01:46:21;;;;;;;12.00;10.90;;;18.80;99.90;;;;;;4996801;28;20464;-73
2023/08/20 01:48:51;;;;;;;13.47;12.17;;;18.70;99.90;;;;;;4995514;28;20871;-73
2023/08/20 01:51:20;;;;;;;13.63;11.90;;;18.70;99.90;;;;;;4996323;28;20445;-73
2023/08/20 01:53:48;;;;;;;12.07;10.90;;;18.70;99.90;;;;;;4995268;28;21001;-74
2023/08/20 01:56:16;;;;;;;13.33;11.93;;;18.60;99.90;;;;;;4995187;28;20484;-74
2023/08/20 01:58:44;;;;;;;11.83;10.60;;;18.60;99.90;;;;;;4995221;28;20453;-73
2023/08/20 02:01:12;;;;;;;12.57;10.93;;;18.60;99.90;;;;;;4995397;28;20518;-73
2023/08/20 02:03:42;;;;;;;12.10;11.00;;;18.60;99.90;;;;;;4995284;28;20993;-73
2023/08/20 02:06:10;;;;;;;11.77;10.47;;;18.60;99.90;;;;;;4995006;28;20954;-73
2023/08/20 02:08:38;;;;;;;12.07;10.87;;;18.60;99.90;;;;;;4996577;28;20433;-73
2023/08/20 02:11:06;;;;;;;11.80;10.70;;;18.50;99.90;;;;;;5011478;28;20909;-73
2023/08/20 02:13:36;;;;;;;10.97;9.87;;;18.50;99.90;;;;;;4994983;28;20842;-73
2023/08/20 02:16:06;;;;;;;12.17;10.90;;;18.50;99.90;;;;;;5011213;28;20481;-73
2023/08/20 02:18:34;;;;;;;11.50;10.10;;;18.50;99.90;;;;;;4996848;28;20417;-73
2023/08/20 02:21:04;;;;;;;11.17;10.07;;;18.40;99.90;;;;;;4996095;28;20885;-73
2023/08/20 02:23:32;;;;;;;11.53;10.30;;;18.40;99.90;;;;;;4994771;28;20519;-73
2023/08/20 02:26:00;;;;;;;11.53;10.07;;;18.40;99.90;;;;;;4994707;28;20461;-73
2023/08/20 02:28:30;;;;;;;11.40;10.30;;;18.30;99.90;;;;;;4996033;28;20463;-73
2023/08/20 02:30:59;;;;;;;13.00;10.40;;;18.40;99.90;;;;;;4996700;28;20476;-73
2023/08/20 02:33:28;;;;;;;12.53;11.33;;;18.30;99.90;;;;;;4995812;28;20828;-73
2023/08/20 02:35:56;;;;;;;12.30;11.10;;;18.30;99.90;;;;;;4995741;28;20415;-73
2023/08/20 02:38:25;;;;;;;11.63;10.53;;;18.30;99.90;;;;;;4995824;28;20443;-73
2023/08/20 02:40:53;;;;;;;11.43;10.33;;;18.30;99.90;;;;;;4994849;28;20995;-73
2023/08/20 02:43:22;;;;;;;12.70;11.43;;;18.20;99.90;;;;;;4995645;28;20546;-73
2023/08/20 02:45:50;;;;;;;11.50;10.40;;;18.20;99.90;;;;;;5010696;28;20466;-73
2023/08/20 02:48:18;;;;;;;11.10;10.03;;;18.20;99.90;;;;;;4994378;28;20471;-73
2023/08/20 02:50:47;;;;;;;11.67;10.50;;;18.20;99.90;;;;;;4995875;28;20421;-73
2023/08/20 02:53:15;;;;;;;10.57;9.50;;;18.10;99.90;;;;;;4993461;28;20444;-73
2023/08/20 02:55:44;;;;;;;11.13;10.23;;;18.10;99.90;;;;;;5010561;28;20416;-73
2023/08/20 02:58:12;;;;;;;11.20;10.20;;;18.10;99.90;;;;;;4994099;28;20496;-73
2023/08/20 03:00:40;;;;;;;11.70;10.60;;;18.10;99.90;;;;;;4994172;28;20528;-73
2023/08/20 03:03:09;;;;;;;12.40;11.30;;;18.10;99.90;;;;;;4994027;28;20519;-73
2023/08/20 03:05:39;;;;;;;11.47;10.47;;;18.10;99.90;;;;;;4994291;28;20433;-73
2023/08/20 03:08:07;;;;;;;11.63;10.53;;;18.00;99.90;;;;;;4994709;28;20448;-73
2023/08/20 03:10:36;;;;;;;10.93;9.93;;;18.00;99.90;;;;;;4997148;28;20472;-73
2023/08/20 03:13:05;;;;;;;10.40;9.50;;;18.00;99.90;;;;;;4995778;28;20433;-73
2023/08/20 03:15:33;;;;;;;10.83;9.83;;;18.00;99.90;;;;;;5010680;28;20941;-73
2023/08/20 03:18:01;;;;;;;11.43;10.43;;;17.90;99.90;;;;;;5010186;28;20477;-73
2023/08/20 03:20:31;;;;;;;10.67;9.57;;;17.90;99.90;;;;;;4993918;28;20449;-73
2023/08/20 03:22:59;;;;;;;10.77;9.77;;;17.90;99.90;;;;;;5010085;28;20452;-73
2023/08/20 03:25:27;;;;;;;11.27;10.17;;;17.90;99.90;;;;;;4994893;28;20437;-73
2023/08/20 03:27:56;;;;;;;11.57;10.40;;;17.80;99.90;;;;;;4994336;28;20858;-73
2023/08/20 03:30:25;;;;;;;11.03;10.07;;;17.80;99.90;;;;;;4993551;28;20506;-73
2023/08/20 03:32:53;;;;;;;10.83;9.80;;;17.80;99.90;;;;;;5009963;28;20449;-73
2023/08/20 03:35:22;;;;;;;10.47;9.53;;;17.80;99.90;;;;;;4993299;28;20469;-73
2023/08/20 03:37:50;;;;;;;9.60;8.70;;;17.80;99.90;;;;;;5009617;28;20444;-73
2023/08/20 03:40:18;;;;;;;9.60;8.60;;;17.70;99.90;;;;;;5009764;28;20423;-73
2023/08/20 03:42:47;;;;;;;9.67;8.87;;;17.70;99.90;;;;;;5009603;28;20431;-73
2023/08/20 03:45:17;;;;;;;9.60;8.80;;;17.70;99.90;;;;;;5009862;28;20997;-73
2023/08/20 03:47:47;;;;;;;10.13;9.03;;;17.70;99.90;;;;;;4994665;28;20450;-73
2023/08/20 03:50:15;;;;;;;10.80;9.30;;;17.70;99.90;;;;;;4993242;28;20431;-73
2023/08/20 03:52:43;;;;;;;9.67;8.87;;;17.60;99.90;;;;;;5009518;28;20535;-73
2023/08/20 03:55:12;;;;;;;10.17;9.17;;;17.60;99.90;;;;;;4993098;28;20508;-73
2023/08/20 03:57:40;;;;;;;10.90;9.90;;;17.60;99.90;;;;;;5009196;28;20455;-73
2023/08/20 04:00:09;;;;;;;9.93;9.03;;;17.60;99.90;;;;;;4994513;28;20471;-73
2023/08/20 04:02:47;;;;;;;10.40;9.33;;;17.60;99.90;;;;;;4994619;28;20487;-73
2023/08/20 04:05:15;;;;;;;10.23;9.27;;;17.60;99.90;;;;;;5009945;28;20436;-73
2023/08/20 04:07:43;;;;;;;10.03;9.13;;;17.60;99.90;;;;;;5009243;28;20491;-73
2023/08/20 04:10:11;;;;;;;10.10;9.10;;;17.60;99.90;;;;;;4992896;28;20445;-73
2023/08/20 04:12:39;;;;;;;10.40;9.50;;;17.50;99.90;;;;;;5009281;28;20454;-73
2023/08/20 04:15:08;;;;;;;9.93;9.03;;;17.50;99.90;;;;;;5009367;28;20522;-72
2023/08/20 04:17:36;;;;;;;10.37;9.37;;;17.50;99.90;;;;;;5009166;28;20504;-73
2023/08/20 04:20:09;;;;;;;10.27;9.27;;;17.50;99.90;;;;;;5009960;28;20404;-73
2023/08/20 04:22:38;;;;;;;9.43;8.53;;;17.50;99.90;;;;;;4993417;28;20879;-73
2023/08/20 04:25:07;;;;;;;10.20;9.20;;;17.50;99.90;;;;;;5008987;28;20824;-73
2023/08/20 04:27:35;;;;;;;9.20;8.30;;;17.50;99.90;;;;;;4994009;28;20437;-73
2023/08/20 04:30:05;;;;;;;11.23;9.30;;;17.50;99.90;;;;;;4992983;28;20445;-73
2023/08/20 04:32:34;;;;;;;9.53;8.70;;;17.40;99.90;;;;;;5009529;28;20445;-72
2023/08/20 04:35:02;;;;;;;9.87;8.97;;;17.40;99.90;;;;;;5009050;28;20471;-73
2023/08/20 04:37:32;;;;;;;10.40;9.60;;;17.40;99.90;;;;;;5008919;28;20447;-73
2023/08/20 04:40:00;;;;;;;11.77;9.97;;;17.40;99.90;;;;;;5009827;28;20449;-73
2023/08/20 04:42:30;;;;;;;10.20;9.30;;;17.40;99.90;;;;;;4992547;28;20836;-72
2023/08/20 04:44:58;;;;;;;10.67;9.67;;;17.40;99.90;;;;;;5008846;28;20526;-73
2023/08/20 04:47:28;;;;;;;11.10;10.00;;;17.30;99.90;;;;;;4992825;28;20466;-73
2023/08/20 04:49:56;;;;;;;12.23;11.20;;;17.30;99.90;;;;;;4994030;28;20443;-73
2023/08/20 04:52:25;;;;;;;11.83;10.77;;;17.30;99.90;;;;;;4992478;28;20556;-72
2023/08/20 04:54:54;;;;;;;12.47;11.27;;;17.30;99.90;;;;;;4992407;28;20447;-73
2023/08/20 04:57:23;;;;;;;12.27;11.07;;;17.30;99.90;;;;;;4992469;28;20465;-73
2023/08/20 04:59:51;;;;;;;11.20;10.17;;;17.30;99.90;;;;;;4992632;28;20499;-73
2023/08/20 05:02:44;;;;;;;11.73;10.53;;;17.30;99.90;;;;;;4992446;28;20453;-73
2023/08/20 05:05:15;;;;;;;12.50;11.33;;;17.30;99.90;;;;;;4992428;28;21028;-72
2023/08/20 05:07:44;;;;;;;11.80;10.60;;;17.30;99.90;;;;;;4992648;28;20427;-72
2023/08/20 05:10:14;;;;;;;12.03;10.83;;;17.30;99.90;;;;;;5009018;28;20420;-73
2023/08/20 05:12:42;;;;;;;13.33;11.87;;;17.30;99.90;;;;;;4992641;28;20433;-73
2023/08/20 05:15:11;;;;;;;13.00;11.80;;;17.30;99.90;;;;;;5009880;28;21080;-73
2023/08/20 05:17:40;;;;;;;12.07;11.00;;;17.40;99.90;;;;;;5015968;28;20473;-73
2023/08/20 05:20:10;;;;;;;12.63;11.20;;;17.40;99.90;;;;;;4999474;28;20415;-73
2023/08/20 05:22:38;;;;;;;12.83;11.73;;;17.40;99.90;;;;;;4997424;28;20511;-73
2023/08/20 05:25:07;;;;;;;13.30;12.00;;;17.40;99.90;;;;;;4996615;28;20739;-73
2023/08/20 05:27:36;;;;;;;12.27;11.07;;;17.40;99.90;;;;;;4997541;28;20508;-73
2023/08/20 05:30:08;;;;;;;13.17;11.90;;;17.40;99.90;;;;;;4996724;28;20484;-73
2023/08/20 05:32:36;;;;;;;12.70;11.40;;;17.40;99.90;;;;;;4996658;28;20418;-73
2023/08/20 05:35:05;;;;;;;12.50;11.40;;;17.50;99.90;;;;;;5012327;28;20443;-73
2023/08/20 05:37:33;;;;;;;13.20;11.90;;;17.40;99.90;;;;;;4995744;28;20424;-73
2023/08/20 05:40:02;;;;;;;14.60;12.27;;;17.50;99.90;;;;;;4997487;28;20494;-73
2023/08/20 05:42:33;;;;;;;12.23;11.13;;;17.50;99.90;;;;;;4995784;28;20423;-73
2023/08/20 05:45:08;;;;;;;13.30;11.90;;;17.50;99.90;;;;;;4995843;28;20810;-72
2023/08/20 05:47:36;;;;;;;13.60;11.97;;;17.50;99.90;;;;;;5012029;28;20441;-72
2023/08/20 05:50:09;;;;;;;12.97;11.60;;;17.50;99.90;;;;;;4995655;28;20515;-72
2023/08/20 05:52:37;;;;;;;12.63;11.30;;;17.60;99.90;;;;;;4995560;28;20424;-72
2023/08/20 05:55:06;;;;;;;12.93;11.67;;;17.60;99.90;;;;;;5011770;28;20468;-73
2023/08/20 05:57:36;;;;;;;12.50;11.40;;;17.60;99.90;;;;;;4995811;28;20465;-72
2023/08/20 06:00:07;;;;;;;12.17;10.87;;;17.70;99.90;;;;;;4996656;28;20547;-73
2023/08/20 06:02:39;;;;;;;12.00;10.87;;;17.70;99.90;;;;;;4997272;28;20430;-73
2023/08/20 06:05:10;;;;;;;14.60;12.73;;;17.80;99.90;;;;;;4995416;28;20468;-73
2023/08/20 06:07:38;;;;;;;11.87;10.70;;;17.90;99.90;;;;;;4996583;28;20532;-72
2023/08/20 06:10:07;;;;;;;13.23;11.83;;;18.00;99.90;;;;;;4996415;28;20444;-73
2023/08/20 06:12:35;;;;;;;13.63;11.00;;;18.10;99.90;;;;;;5011454;28;20453;-73
2023/08/20 06:15:07;;;;;;;12.70;11.33;;;18.30;99.90;;;;;;4994976;28;20483;-73
2023/08/20 06:17:35;;;;;;;14.27;12.83;;;18.50;99.90;;;;;;4995214;28;20523;-73
2023/08/20 06:20:08;;;;;;;10.63;9.53;;;18.60;99.90;;;;;;4996314;28;20893;-73
2023/08/20 06:22:36;;;;;;;12.30;9.73;;;18.80;99.90;;;;;;4996194;28;20428;-73
2023/08/20 06:25:05;;;;;;;10.30;9.27;;;19.00;99.90;;;;;;4996048;28;20459;-73
2023/08/20 06:27:33;;;;;;;10.60;8.97;;;19.10;99.90;;;;;;4996072;28;20527;-73
2023/08/20 06:30:03;;;;;;;12.93;9.20;;;19.20;99.90;;;;;;4996291;28;20417;-73
2023/08/20 06:32:33;;;;;;;8.67;7.73;;;19.40;99.90;;;;;;4996520;28;20492;-73
2023/08/20 06:35:01;;;;;;;10.23;8.03;;;19.50;99.90;;;;;;4995926;28;20464;-73
2023/08/20 06:37:29;;;;;;;8.87;7.40;;;19.70;99.90;;;;;;4995796;28;20468;-73
2023/08/20 06:39:57;;;;;;;11.00;7.87;;;19.80;99.90;;;;;;4995965;28;21056;-73
2023/08/20 06:42:25;;;;;;;10.80;7.33;;;20.00;99.90;;;;;;4996000;28;20524;-73
2023/08/20 06:44:53;;;;;;;9.63;7.30;;;20.20;99.90;;;;;;4995727;28;20463;-73
2023/08/20 06:47:21;;;;;;;7.83;6.43;;;20.30;99.90;;;;;;5010946;28;20888;-73
2023/08/20 06:49:51;;;;;;;7.70;6.60;;;20.50;99.90;;;;;;4995884;28;20929;-73
2023/08/20 06:52:19;;;;;;;7.63;6.40;;;20.60;99.90;;;;;;4995562;28;20432;-73
2023/08/20 06:54:47;;;;;;;10.53;7.10;;;20.70;99.90;;;;;;4995624;28;20549;-74
2023/08/20 06:57:15;;;;;;;6.53;5.73;;;20.80;99.90;;;;;;4995309;28;21035;-72
2023/08/20 06:59:43;;;;;;;7.37;6.67;;;21.00;99.90;;;;;;4995772;28;20472;-72
2023/08/20 07:02:11;;;;;;;7.60;6.20;;;21.10;99.90;;;;;;4995819;28;20822;-73
2023/08/20 07:04:39;;;;;;;12.70;6.33;;;21.20;99.90;;;;;;4995610;28;20547;-73
2023/08/20 07:07:09;;;;;;;8.20;5.73;;;21.30;99.90;;;;;;4995467;28;20440;-73
2023/08/20 07:09:38;;;;;;;7.83;6.30;;;21.30;99.90;;;;;;4995935;28;20436;-73
2023/08/20 07:12:06;;;;;;;8.77;6.17;;;21.50;99.90;;;;;;4995859;28;20447;-73
2023/08/20 07:14:34;;;;;;;7.77;5.70;;;21.60;99.90;;;;;;4995862;28;20457;-72
2023/08/20 07:17:02;;;;;;;10.33;5.80;;;21.60;99.90;;;;;;4996178;28;21000;-73
2023/08/20 07:19:31;;;;;;;11.30;6.00;;;21.70;99.90;;;;;;4996357;28;20468;-73
2023/08/20 07:21:59;;;;;;;5.97;5.07;;;21.80;99.90;;;;;;4996762;28;20479;-73
2023/08/20 07:24:30;;;;;;;12.30;6.90;;;21.90;99.90;;;;;;4995825;28;20524;-74
2023/08/20 07:27:01;;;;;;;6.10;5.27;;;22.00;99.90;;;;;;5010911;28;20480;-73
2023/08/20 07:29:29;;;;;;;7.00;4.83;;;22.10;99.90;;;;;;4994008;28;20437;-72
2023/08/20 07:31:58;;;;;;;9.13;6.00;;;22.20;99.90;;;;;;4994896;28;20536;-72
2023/08/20 07:34:26;;;;;;;8.53;5.73;;;22.20;99.90;;;;;;4995125;28;20449;-74
2023/08/20 07:36:54;;;;;;;7.23;5.90;;;22.30;99.90;;;;;;4997271;28;20502;-73
2023/08/20 07:39:22;;;;;;;6.23;4.70;;;22.40;99.90;;;;;;4995772;28;20563;-73
2023/08/20 07:41:52;;;;;;;6.97;4.80;;;22.40;99.90;;;;;;4995695;28;20508;-74
2023/08/20 07:44:20;;;;;;;15.63;11.43;;;22.50;99.90;;;;;;4995204;28;20877;-74
2023/08/20 07:46:48;;;;;;;7.00;4.50;;;22.60;99.90;;;;;;4996608;28;20806;-73
2023/08/20 07:49:16;;;;;;;7.87;5.03;;;22.70;99.90;;;;;;5013345;28;20449;-72
2023/08/20 07:51:44;;;;;;;9.33;4.90;;;22.80;99.90;;;;;;4998001;28;20433;-73
2023/08/20 07:54:12;;;;;;;9.90;4.80;;;22.80;99.90;;;;;;4998169;28;20559;-73
2023/08/20 07:56:40;;;;;;;6.43;4.13;;;22.90;99.90;;;;;;4999779;28;20459;-73
2023/08/20 07:59:10;;;;;;;5.50;4.20;;;22.90;99.90;;;;;;4994675;28;20476;-74
2023/08/20 08:01:41;;;;;;;6.60;4.30;;;23.00;99.90;;;;;;4994855;28;20436;-73
2023/08/20 08:04:09;;;;;;;7.53;3.90;;;23.00;99.90;;;;;;4995140;28;20565;-74
2023/08/20 08:06:38;;;;;;;7.73;3.90;;;23.00;99.90;;;;;;4997611;28;20445;-75
2023/08/20 08:09:22;;;;;;;8.43;6.00;;;23.10;99.90;;;;;;4997685;28;20433;-75
2023/08/20 08:11:51;;;;;;;7.97;4.83;;;23.20;99.90;;;;;;5013296;28;20495;-74
2023/08/20 08:14:20;;;;;;;8.63;4.63;;;23.20;99.90;;;;;;4996601;28;20499;-75
2023/08/20 08:16:49;;;;;;;10.13;4.93;;;23.30;99.90;;;;;;4998349;28;20436;-74
2023/08/20 08:19:17;;;;;;;5.83;4.20;;;23.40;99.90;;;;;;4996663;28;20495;-74
2023/08/20 08:21:46;;;;;;;6.80;4.50;;;23.40;99.90;;;;;;4995063;28;20545;-75
2023/08/20 08:24:15;;;;;;;4.87;4.37;;;23.50;99.90;;;;;;4996932;28;20484;-76
2023/08/20 08:26:43;;;;;;;6.33;4.80;;;23.50;99.90;;;;;;4999542;28;20436;-76
2023/08/20 08:29:12;;;;;;;8.80;4.10;;;23.50;99.90;;;;;;5001390;28;20997;-77
2023/08/20 08:31:41;;;;;;;8.00;4.80;;;23.50;99.90;;;;;;5016544;28;20444;-76
2023/08/20 08:34:09;;;;;;;7.57;5.00;;;23.50;99.90;;;;;;4995234;28;20535;-76
2023/08/20 08:36:37;;;;;;;6.70;4.27;;;23.60;99.90;;;;;;4995418;28;20537;-76
2023/08/20 08:39:07;;;;;;;8.17;5.00;;;23.60;99.90;;;;;;4995715;28;20468;-76
2023/08/20 08:41:38;;;;;;;7.03;4.63;;;23.60;99.90;;;;;;4996099;28;20483;-76
2023/08/20 08:44:09;;;;;;;8.83;6.10;;;23.60;99.90;;;;;;4995334;28;20541;-77
2023/08/20 08:46:40;;;;;;;10.50;5.63;;;23.70;99.90;;;;;;4996089;28;20476;-76
2023/08/20 08:49:09;;;;;;;8.97;5.87;;;23.70;99.90;;;;;;4995510;28;20425;-75
2023/08/20 08:51:38;;;;;;;8.83;6.13;;;23.70;99.90;;;;;;5000816;28;20464;-76
2023/08/20 08:54:08;;;;;;;8.93;5.73;;;23.70;99.90;;;;;;5014792;28;20469;-76
2023/08/20 08:56:36;;;;;;;9.93;6.57;;;23.80;99.90;;;;;;4998692;28;20452;-76
2023/08/20 08:59:04;;;;;;;9.60;6.73;;;23.80;99.90;;;;;;5013775;28;20963;-76
2023/08/20 09:01:32;;;;;;;9.60;7.03;;;23.90;99.90;;;;;;4999485;28;20523;-76
2023/08/20 09:04:03;;;;;;;9.50;6.20;;;23.90;99.90;;;;;;4998741;28;20469;-76
2023/08/20 09:06:45;;;;;;;12.73;7.93;;;23.90;99.90;;;;;;4999352;28;20429;-75
2023/08/20 09:09:13;;;;;;;7.93;7.10;;;24.00;99.90;;;;;;4998869;28;20524;-76
2023/08/20 09:11:41;;;;;;;9.50;7.30;;;24.00;99.90;;;;;;4998366;28;20433;-76
2023/08/20 09:14:22;;;;;;;9.23;7.10;;;24.10;99.90;;;;;;4998956;28;20460;-76
2023/08/20 09:16:56;;;;;;;7.47;6.67;;;24.00;99.90;;;;;;5013149;28;20519;-76
2023/08/20 09:19:28;;;;;;;8.80;6.97;;;24.00;99.90;;;;;;4997751;28;20923;-76
2023/08/20 09:22:00;;;;;;;6.97;6.27;;;24.10;99.90;;;;;;4996037;28;20531;-76
2023/08/20 09:24:35;;;;;;;11.50;7.27;;;24.10;99.90;;;;;;4997120;28;20556;-76
2023/08/20 09:27:05;;;;;;;8.93;7.60;;;24.10;99.90;;;;;;4997372;28;20479;-76
2023/08/20 09:29:34;;;;;;;8.93;8.03;;;24.20;99.90;;;;;;4997532;28;20907;-76
2023/08/20 09:32:03;;;;;;;9.80;9.00;;;24.20;99.90;;;;;;5012229;28;20436;-75
2023/08/20 09:34:39;;;;;;;10.20;8.80;;;24.30;99.90;;;;;;4997163;28;20981;-76
2023/08/20 09:37:11;;;;;;;10.97;8.73;;;24.30;99.90;;;;;;4997598;28;20455;-75
2023/08/20 09:39:39;;;;;;;9.37;8.47;;;24.30;99.90;;;;;;5012035;28;20981;-76
2023/08/20 09:42:08;;;;;;;13.07;9.20;;;24.40;99.90;;;;;;4996961;28;20433;-76
2023/08/20 09:44:38;;;;;;;11.73;10.40;;;24.50;99.90;;;;;;4997156;28;20471;-80
2023/08/20 09:47:08;;;;;;;12.60;10.50;;;24.60;99.90;;;;;;4995890;28;20484;-76
2023/08/20 09:49:43;;;;;;;11.57;9.70;;;24.70;99.90;;;;;;4995349;28;20445;-77
2023/08/20 09:52:13;;;;;;;16.10;14.77;;;24.60;99.90;;;;;;5012709;28;20898;-76
2023/08/20 09:54:57;;;;;;;13.60;12.50;;;24.70;99.90;;;;;;4997142;28;20563;-76
2023/08/20 09:57:32;;;;;;;14.93;13.50;;;24.70;99.90;;;;;;5028106;23;20537;-75
2023/08/20 10:00:02;;;;;;;15.27;13.70;;;24.70;99.90;;;;;;5016919;28;20462;-75
2023/08/20 10:02:40;;;;;;;13.23;12.10;;;24.70;99.90;;;;;;5015870;28;20428;-76
2023/08/20 10:05:12;;;;;;;12.07;11.17;;;24.60;99.90;;;;;;5016377;28;20466;-76
2023/08/20 10:07:40;;;;;;;13.60;11.73;;;24.70;99.90;;;;;;5016019;28;20486;-76
2023/08/20 10:10:11;;;;;;;14.27;12.80;;;24.70;99.90;;;;;;5015942;28;20494;-76
2023/08/20 10:12:41;;;;;;;11.70;10.60;;;24.70;99.90;;;;;;5015915;28;20424;-76
2023/08/20 10:15:10;;;;;;;11.60;10.67;;;24.70;99.90;;;;;;5014540;28;20503;-76
2023/08/20 10:17:40;;;;;;;13.83;11.70;;;24.80;99.90;;;;;;5015855;28;20509;-76
2023/08/20 10:20:11;;;;;;;11.50;10.00;;;24.90;99.90;;;;;;5015889;28;20478;-76
2023/08/20 10:22:40;;;;;;;11.97;10.87;;;25.00;99.90;;;;;;5016204;28;20511;-76
2023/08/20 10:25:10;;;;;;;11.10;9.93;;;25.10;99.90;;;;;;5015648;28;20510;-76
2023/08/20 10:27:40;;;;;;;11.23;8.60;;;25.10;99.90;;;;;;5014218;28;20965;-76
2023/08/20 10:30:15;;;;;;;11.33;10.17;;;25.20;99.90;;;;;;5014487;28;20492;-76
2023/08/20 10:32:48;;;;;;;10.67;9.70;;;25.30;99.90;;;;;;5014237;28;20475;-76
2023/08/20 10:35:19;;;;;;;10.97;9.40;;;25.30;99.90;;;;;;5015414;28;20498;-76
2023/08/20 10:38:04;;;;;;;10.53;9.67;;;25.30;99.90;;;;;;5014025;28;20443;-76
2023/08/20 10:40:57;;;;;;;18.90;16.90;;;25.30;99.90;;;;;;5015860;28;20514;-76
2023/08/20 10:43:28;;;;;;;13.70;9.47;;;25.30;99.90;;;;;;5005512;28;20866;-77
2023/08/20 10:46:07;;;;;;;10.17;9.17;;;25.40;99.90;;;;;;5015745;28;20416;-76
2023/08/20 10:48:39;;;;;;;8.00;7.20;;;25.50;99.90;;;;;;5016398;28;20432;-76
2023/08/20 10:51:10;;;;;;;18.47;16.57;;;25.50;99.90;;;;;;5015092;28;20517;-77
2023/08/20 10:53:40;;;;;;;10.13;9.23;;;25.50;99.90;;;;;;5015865;28;20499;-77
2023/08/20 10:56:09;;;;;;;12.20;9.03;;;25.50;99.90;;;;;;5015221;28;20824;-76
2023/08/20 10:58:45;;;;;;;9.63;8.73;;;25.50;99.90;;;;;;5014251;28;20933;-76
2023/08/20 11:01:19;;;;;;;10.30;8.97;;;25.50;99.90;;;;;;5015237;28;20827;-76
2023/08/20 11:03:49;;;;;;;9.40;8.60;;;25.40;99.90;;;;;;5014053;28;20947;-77
2023/08/20 11:06:19;;;;;;;8.67;7.87;;;25.40;99.90;;;;;;5015416;28;20447;-76
2023/08/20 11:08:48;;;;;;;10.50;9.50;;;25.40;99.90;;;;;;5015849;28;20486;-76
2023/08/20 11:11:18;;;;;;;10.97;8.33;;;25.30;99.90;;;;;;5015337;28;20945;-76
2023/08/20 11:13:46;;;;;;;8.90;8.10;;;25.30;99.90;;;;;;5014123;28;20452;-77
2023/08/20 11:16:14;;;;;;;9.23;8.40;;;25.40;99.90;;;;;;5013635;28;20888;-77
2023/08/20 11:18:42;;;;;;;9.17;8.37;;;25.50;99.90;;;;;;5014750;28;20432;-77
2023/08/20 11:21:11;;;;;;;9.67;8.10;;;25.50;99.90;;;;;;5013342;28;20496;-77
2023/08/20 11:23:42;;;;;;;10.50;9.50;;;25.50;99.90;;;;;;5014674;28;20985;-76
2023/08/20 11:26:10;;;;;;;8.93;8.10;;;25.60;99.90;;;;;;5013560;28;20439;-77
2023/08/20 11:28:39;;;;;;;8.63;7.90;;;25.70;99.90;;;;;;5013321;28;20541;-76
2023/08/20 11:31:08;;;;;;;7.73;7.13;;;25.70;99.90;;;;;;5013864;28;20451;-77
2023/08/20 11:33:36;;;;;;;8.77;7.87;;;25.80;99.90;;;;;;5014815;28;20460;-76
2023/08/20 11:36:06;;;;;;;6.43;5.67;;;25.90;99.90;;;;;;5014348;28;20977;-76
2023/08/20 11:38:35;;;;;;;6.90;5.37;;;26.00;99.90;;;;;;5014890;28;20890;-76
2023/08/20 11:41:05;;;;;;;7.20;5.40;;;26.10;99.90;;;;;;5014626;28;20555;-76
2023/08/20 11:43:33;;;;;;;6.10;5.20;;;26.20;99.90;;;;;;5012934;28;20529;-76
2023/08/20 11:46:02;;;;;;;7.23;5.30;;;26.20;99.90;;;;;;5014657;28;20443;-77
2023/08/20 11:48:30;;;;;;;6.80;6.10;;;26.20;99.90;;;;;;5014249;28;20839;-76
2023/08/20 11:50:59;;;;;;;7.73;6.77;;;26.20;99.90;;;;;;5014344;28;20802;-77
2023/08/20 11:53:29;;;;;;;9.13;5.60;;;26.20;99.90;;;;;;5013926;28;20498;-76
2023/08/20 11:55:58;;;;;;;6.40;5.60;;;26.20;99.90;;;;;;5014275;28;20494;-77
2023/08/20 11:58:29;;;;;;;8.27;5.80;;;26.30;99.90;;;;;;5012948;28;20444;-76
2023/08/20 12:00:57;;;;;;;6.13;5.50;;;26.30;99.90;;;;;;5012669;28;20455;-76
2023/08/20 12:03:31;;;;;;;7.07;5.73;;;26.40;99.90;;;;;;5014562;28;20470;-74
2023/08/20 12:06:31;;;;;;;7.13;5.20;;;26.40;99.90;;;;;;5013057;28;20448;-75
2023/08/20 12:09:40;;;;;;;6.03;4.70;;;26.40;99.90;;;;;;5012268;28;20463;-75
2023/08/20 12:12:21;;;;;;;6.53;5.47;;;26.30;99.90;;;;;;5012848;28;20456;-75
2023/08/20 12:14:51;;;;;;;6.40;5.77;;;26.30;99.90;;;;;;5014050;28;20546;-76
2023/08/20 12:17:19;;;;;;;5.20;4.67;;;26.20;99.90;;;;;;5013761;28;20436;-75
2023/08/20 12:19:47;;;;;;;6.60;4.47;;;26.30;99.90;;;;;;5012521;28;20452;-75
2023/08/20 12:22:15;;;;;;;6.00;4.43;;;26.30;99.90;;;;;;5012471;28;20475;-75
2023/08/20 12:24:43;;;;;;;7.90;4.77;;;26.40;99.90;;;;;;5013716;28;20542;-76
2023/08/20 12:27:11;;;;;;;5.83;4.50;;;26.50;99.90;;;;;;5012553;28;20444;-76
2023/08/20 12:29:40;;;;;;;6.50;4.33;;;26.50;99.90;;;;;;5012460;28;20452;-76
2023/08/20 12:32:09;;;;;;;8.23;4.70;;;26.50;99.90;;;;;;5012355;28;20454;-75
2023/08/20 12:34:37;;;;;;;5.73;4.87;;;26.50;99.90;;;;;;5013562;28;20460;-75
2023/08/20 12:37:05;;;;;;;8.20;5.07;;;26.40;99.90;;;;;;5013519;28;20436;-76
2023/08/20 12:39:34;;;;;;;5.30;4.13;;;26.40;99.90;;;;;;5013474;28;20792;-76
2023/08/20 12:42:02;;;;;;;6.10;4.77;;;26.40;99.90;;;;;;5013390;28;20476;-75
2023/08/20 12:44:30;;;;;;;6.67;4.73;;;26.30;99.90;;;;;;5012120;28;20467;-76
2023/08/20 12:46:58;;;;;;;5.70;4.73;;;26.40;99.90;;;;;;5013933;28;20494;-75
2023/08/20 12:49:28;;;;;;;5.93;4.20;;;26.50;99.90;;;;;;5013365;28;20787;-75